createdAt,value
2017-10-03T00:02:16.966Z,10.85
2017-10-03T00:04:45.170Z,10.52
2017-10-03T00:07:12.616Z,9.05
2017-10-03T00:09:40.048Z,10.63
2017-10-03T00:12:08.259Z,15.55
2017-10-03T00:14:35.696Z,11.38
2017-10-03T00:17:03.138Z,11.60
2017-10-03T00:19:31.348Z,9.80
2017-10-03T00:21:58.808Z,9.05
2017-10-03T00:24:26.238Z,12.65
2017-10-03T00:26:53.687Z,11.02
2017-10-03T00:29:21.140Z,13.10
2017-10-03T00:31:49.340Z,14.02
2017-10-03T00:34:16.802Z,11.27
2017-10-03T00:36:44.238Z,10.50
2017-10-03T00:42:01.983Z,9.90
2017-10-03T00:44:29.437Z,12.52
2017-10-03T00:46:56.874Z,10.90
2017-10-03T00:49:24.318Z,10.75
2017-10-03T00:51:51.745Z,9.57
2017-10-03T00:54:19.188Z,8.80
2017-10-03T00:56:46.636Z,12.10
2017-10-03T00:59:14.118Z,10.02
2017-10-03T01:01:41.543Z,8.13
2017-10-03T01:04:08.985Z,8.05
2017-10-03T01:06:37.184Z,9.35
2017-10-03T01:09:04.646Z,9.68
2017-10-03T01:11:32.084Z,12.35
2017-10-03T01:13:59.553Z,11.45
2017-10-03T01:16:26.978Z,8.90
2017-10-03T01:18:54.453Z,13.18
2017-10-03T01:21:21.892Z,10.48
2017-10-03T01:23:49.689Z,11.85
2017-10-03T01:26:17.124Z,11.18
2017-10-03T01:28:44.579Z,10.60
2017-10-03T01:31:12.067Z,11.80
2017-10-03T01:33:39.503Z,16.50
2017-10-03T01:36:06.946Z,10.10
2017-10-03T01:38:34.395Z,10.77
2017-10-03T01:41:01.858Z,10.00
2017-10-03T01:43:29.292Z,14.20
2017-10-03T01:45:57.494Z,10.55
2017-10-03T01:48:24.935Z,12.45
2017-10-03T01:50:53.144Z,10.50
2017-10-03T01:53:20.587Z,12.43
2017-10-03T01:55:48.032Z,9.90
2017-10-03T01:58:15.466Z,11.93
2017-10-03T02:00:43.666Z,11.98
2017-10-03T02:03:11.117Z,12.98
2017-10-03T02:05:38.555Z,10.67
2017-10-03T02:08:05.998Z,13.05
2017-10-03T02:10:33.436Z,9.73
2017-10-03T02:13:00.905Z,12.88
2017-10-03T02:15:28.402Z,14.35
2017-10-03T02:17:55.856Z,11.73
2017-10-03T02:20:23.288Z,12.50
2017-10-03T02:22:51.512Z,10.20
2017-10-03T02:25:18.952Z,12.13
2017-10-03T02:27:46.413Z,13.00
2017-10-03T02:30:13.847Z,11.88
2017-10-03T02:32:41.290Z,10.73
2017-10-03T02:35:09.497Z,12.35
2017-10-03T02:37:36.955Z,11.05
2017-10-03T02:40:04.411Z,11.38
2017-10-03T02:42:31.902Z,11.18
2017-10-03T02:44:59.322Z,12.50
2017-10-03T02:47:26.769Z,17.30
2017-10-03T02:49:54.223Z,16.10
2017-10-03T02:52:21.665Z,12.40
2017-10-03T02:54:49.126Z,10.10
2017-10-03T02:57:16.559Z,11.35
2017-10-03T02:59:44.767Z,9.88
2017-10-03T03:02:12.205Z,9.23
2017-10-03T03:04:40.415Z,9.40
2017-10-03T03:07:07.854Z,10.48
2017-10-03T03:09:35.303Z,10.88
2017-10-03T03:12:02.741Z,11.25
2017-10-03T03:14:30.945Z,9.60
2017-10-03T03:16:58.402Z,9.52
2017-10-03T03:19:25.840Z,9.15
2017-10-03T03:21:53.273Z,12.55
2017-10-03T03:24:21.474Z,10.93
2017-10-03T03:26:48.915Z,7.10
2017-10-03T03:29:17.133Z,10.30
2017-10-03T03:31:44.560Z,11.77
2017-10-03T03:34:12.002Z,10.77
2017-10-03T03:36:39.484Z,10.23
2017-10-03T03:39:06.922Z,9.77
2017-10-03T03:41:35.127Z,8.30
2017-10-03T03:44:02.582Z,11.48
2017-10-03T03:46:30.033Z,11.12
2017-10-03T03:48:57.492Z,10.32
2017-10-03T03:51:24.944Z,9.88
2017-10-03T03:53:52.383Z,11.25
2017-10-03T03:56:19.819Z,9.13
2017-10-03T03:58:48.040Z,12.60
2017-10-03T04:01:15.493Z,8.02
2017-10-03T04:03:42.916Z,11.30
2017-10-03T04:06:10.354Z,9.07
2017-10-03T04:08:38.561Z,10.13
2017-10-03T04:11:05.997Z,13.57
2017-10-03T04:13:34.185Z,9.23
2017-10-03T04:16:01.646Z,10.38
2017-10-03T04:18:29.084Z,12.70
2017-10-03T04:20:56.531Z,10.45
2017-10-03T04:23:24.754Z,9.85
2017-10-03T04:25:52.219Z,10.02
2017-10-03T04:28:19.674Z,8.10
2017-10-03T04:30:47.107Z,10.70
2017-10-03T04:33:14.553Z,10.63
2017-10-03T04:35:41.986Z,12.50
2017-10-03T04:38:09.422Z,11.05
2017-10-03T04:40:36.853Z,8.95
2017-10-03T04:43:04.306Z,12.37
2017-10-03T04:45:31.743Z,11.23
2017-10-03T04:47:59.196Z,10.20
2017-10-03T04:50:26.628Z,11.27
2017-10-03T04:52:54.830Z,13.98
2017-10-03T04:55:22.270Z,11.18
2017-10-03T04:57:49.730Z,14.35
2017-10-03T05:00:17.171Z,14.05
2017-10-03T05:02:45.375Z,11.38
2017-10-03T05:05:12.828Z,11.82
2017-10-03T05:07:40.271Z,16.20
2017-10-03T05:10:08.449Z,18.33
2017-10-03T05:12:35.890Z,11.23
2017-10-03T05:15:04.099Z,13.18
2017-10-03T05:17:31.538Z,13.73
2017-10-03T05:19:58.983Z,15.52
2017-10-03T05:22:27.185Z,12.68
2017-10-03T05:24:54.622Z,15.33
2017-10-03T05:27:22.055Z,12.15
2017-10-03T05:29:50.290Z,13.07
2017-10-03T05:32:17.741Z,10.45
2017-10-03T05:34:45.182Z,10.10
2017-10-03T05:37:12.615Z,11.75
2017-10-03T05:39:40.083Z,10.15
2017-10-03T05:42:07.531Z,15.73
2017-10-03T05:44:34.973Z,11.05
2017-10-03T05:47:02.432Z,11.30
2017-10-03T05:49:29.911Z,12.43
2017-10-03T05:51:57.367Z,13.30
2017-10-03T05:54:24.794Z,12.30
2017-10-03T05:56:52.238Z,13.18
2017-10-03T05:59:20.459Z,17.85
2017-10-03T06:01:47.907Z,11.40
2017-10-03T06:04:15.333Z,15.23
2017-10-03T06:06:42.777Z,14.13
2017-10-03T06:09:10.982Z,11.60
2017-10-03T06:11:38.422Z,15.05
2017-10-03T06:14:05.887Z,13.00
2017-10-03T06:16:33.350Z,13.32
2017-10-03T06:19:00.792Z,12.37
2017-10-03T06:21:28.231Z,12.63
2017-10-03T06:23:56.426Z,10.88
2017-10-03T06:26:23.872Z,12.40
2017-10-03T06:28:51.302Z,11.97
2017-10-03T06:31:18.740Z,11.38
2017-10-03T06:33:46.179Z,11.80
2017-10-03T06:36:13.639Z,12.27
2017-10-03T06:38:41.071Z,13.37
2017-10-03T06:41:09.010Z,11.82
2017-10-03T06:43:36.439Z,13.93
2017-10-03T06:46:03.901Z,12.18
2017-10-03T06:48:31.322Z,12.40
2017-10-03T06:50:58.763Z,13.00
2017-10-03T06:53:26.192Z,12.20
2017-10-03T06:55:54.402Z,13.95
2017-10-03T06:58:21.854Z,14.38
2017-10-03T07:00:49.284Z,15.05
2017-10-03T07:03:17.550Z,11.25
2017-10-03T07:05:44.993Z,12.98
2017-10-03T07:08:12.423Z,13.43
2017-10-03T07:10:39.858Z,12.95
2017-10-03T07:13:07.299Z,13.95
2017-10-03T07:15:34.751Z,11.65
2017-10-03T07:18:02.192Z,12.63
2017-10-03T07:20:29.627Z,13.68
2017-10-03T07:22:57.069Z,13.90
2017-10-03T07:25:24.510Z,11.07
2017-10-03T07:27:51.949Z,14.20
2017-10-03T07:30:19.380Z,12.88
2017-10-03T07:32:47.594Z,12.57
2017-10-03T07:35:15.035Z,12.77
2017-10-03T07:37:43.300Z,11.15
2017-10-03T07:40:10.793Z,13.77
2017-10-03T07:42:38.232Z,12.73
2017-10-03T07:45:05.668Z,12.52
2017-10-03T07:47:33.103Z,12.75
2017-10-03T07:50:00.546Z,11.35
2017-10-03T07:52:28.741Z,9.45
2017-10-03T07:54:56.190Z,11.45
2017-10-03T07:57:23.642Z,9.43
2017-10-03T07:59:51.875Z,12.02
2017-10-03T08:02:19.309Z,11.35
2017-10-03T08:04:46.750Z,9.90
2017-10-03T08:07:14.187Z,11.63
2017-10-03T08:09:42.388Z,11.50
2017-10-03T08:12:09.819Z,9.60
2017-10-03T08:14:37.288Z,15.25
2017-10-03T08:17:04.721Z,9.77
2017-10-03T08:19:32.948Z,10.20
2017-10-03T08:22:00.436Z,12.68
2017-10-03T08:24:27.905Z,11.68
2017-10-03T08:26:56.116Z,12.10
2017-10-03T08:29:23.554Z,9.82
2017-10-03T08:31:51.002Z,11.00
2017-10-03T08:34:19.202Z,8.55
2017-10-03T08:36:46.647Z,8.23
2017-10-03T08:39:14.082Z,8.80
2017-10-03T08:41:42.299Z,9.80
2017-10-03T08:44:09.726Z,9.93
2017-10-03T08:46:37.171Z,9.93
2017-10-03T08:49:05.371Z,13.57
2017-10-03T08:51:32.863Z,10.43
2017-10-03T08:54:00.300Z,9.90
2017-10-03T08:56:27.750Z,8.00
2017-10-03T08:58:55.181Z,7.95
2017-10-03T09:01:22.623Z,7.62
2017-10-03T09:03:51.523Z,7.32
2017-10-03T09:06:19.718Z,10.10
2017-10-03T09:08:47.176Z,7.50
2017-10-03T09:11:14.594Z,8.02
2017-10-03T09:13:42.793Z,9.95
2017-10-03T09:16:10.232Z,9.05
2017-10-03T09:18:38.454Z,7.25
2017-10-03T09:21:05.924Z,9.13
2017-10-03T09:23:35.105Z,7.80
2017-10-03T09:26:02.534Z,8.02
2017-10-03T09:28:29.982Z,11.55
2017-10-03T09:30:57.424Z,12.75
2017-10-03T09:33:24.871Z,12.00
2017-10-03T09:35:52.319Z,11.03
2017-10-03T09:38:19.764Z,10.52
2017-10-03T09:40:47.204Z,9.93
2017-10-03T09:43:14.642Z,9.57
2017-10-03T09:45:42.074Z,8.82
2017-10-03T09:48:09.510Z,8.05
2017-10-03T09:50:36.943Z,6.82
2017-10-03T09:53:04.383Z,8.52
2017-10-03T09:55:31.817Z,7.55
2017-10-03T09:57:59.269Z,9.60
2017-10-03T10:00:26.698Z,8.77
2017-10-03T10:02:54.912Z,9.13
2017-10-03T10:05:22.336Z,8.85
2017-10-03T10:07:49.786Z,10.35
2017-10-03T10:10:17.217Z,6.60
2017-10-03T10:12:44.665Z,7.95
2017-10-03T10:15:12.139Z,9.88
2017-10-03T10:17:40.373Z,8.23
2017-10-03T10:20:08.606Z,9.88
2017-10-03T10:22:36.819Z,7.05
2017-10-03T10:25:04.272Z,8.65
2017-10-03T10:27:31.695Z,8.73
2017-10-03T10:29:59.142Z,9.35
2017-10-03T10:32:27.340Z,7.50
2017-10-03T10:34:54.775Z,5.65
2017-10-03T10:37:22.203Z,9.05
2017-10-03T10:39:49.640Z,4.07
2017-10-03T10:42:17.085Z,7.22
2017-10-03T10:44:44.518Z,6.15
2017-10-03T10:47:11.976Z,7.85
2017-10-03T10:49:39.395Z,7.07
2017-10-03T10:52:07.586Z,3.50
2017-10-03T10:54:35.798Z,6.05
2017-10-03T10:57:03.232Z,6.35
2017-10-03T10:59:30.666Z,5.47
2017-10-03T11:01:58.854Z,7.25
2017-10-03T11:04:26.339Z,7.85
2017-10-03T11:06:53.773Z,6.78
2017-10-03T11:09:21.233Z,7.75
2017-10-03T11:11:48.659Z,6.78
2017-10-03T11:14:16.859Z,5.07
2017-10-03T11:16:44.298Z,6.82
2017-10-03T11:19:11.763Z,5.20
2017-10-03T11:21:39.195Z,6.07
2017-10-03T11:24:19.059Z,4.22
2017-10-03T11:26:46.513Z,4.18
2017-10-03T11:29:14.707Z,6.70
2017-10-03T11:31:42.163Z,5.37
2017-10-03T11:34:09.626Z,5.03
2017-10-03T11:36:37.065Z,6.68
2017-10-03T11:39:04.506Z,6.75
2017-10-03T11:41:32.707Z,6.70
2017-10-03T11:44:00.146Z,7.68
2017-10-03T11:46:27.578Z,8.48
2017-10-03T11:48:55.785Z,6.05
2017-10-03T11:51:23.240Z,7.80
2017-10-03T11:53:50.675Z,5.10
2017-10-03T11:56:18.115Z,4.78
2017-10-03T11:58:45.555Z,4.43
2017-10-03T12:01:12.984Z,6.53
2017-10-03T12:03:41.311Z,6.03
2017-10-03T12:06:09.517Z,5.20
2017-10-03T12:08:36.958Z,6.85
2017-10-03T12:11:04.394Z,3.60
2017-10-03T12:13:32.595Z,5.30
2017-10-03T12:16:00.033Z,4.55
2017-10-03T12:18:27.478Z,5.82
2017-10-03T12:20:55.691Z,4.22
2017-10-03T12:23:23.149Z,5.00
2017-10-03T12:25:50.584Z,5.90
2017-10-03T12:28:18.030Z,6.65
2017-10-03T12:30:46.218Z,6.87
2017-10-03T12:33:13.651Z,4.28
2017-10-03T12:35:41.863Z,6.60
2017-10-03T12:38:09.298Z,7.32
2017-10-03T12:40:36.718Z,6.07
2017-10-03T12:43:04.160Z,6.70
2017-10-03T12:45:31.604Z,5.40
2017-10-03T12:47:59.048Z,6.68
2017-10-03T12:50:26.517Z,4.43
2017-10-03T12:52:53.965Z,4.87
2017-10-03T12:55:21.408Z,5.03
2017-10-03T12:57:48.852Z,4.80
2017-10-03T13:00:16.297Z,6.12
2017-10-03T13:02:43.740Z,4.00
2017-10-03T13:05:11.174Z,5.70
2017-10-03T13:07:38.609Z,3.92
2017-10-03T13:10:06.065Z,4.72
2017-10-03T13:12:33.482Z,4.40
2017-10-03T13:15:00.944Z,5.57
2017-10-03T13:17:29.162Z,5.97
2017-10-03T13:19:56.601Z,4.07
2017-10-03T13:22:24.028Z,5.75
2017-10-03T13:24:51.471Z,7.18
2017-10-03T13:27:19.658Z,4.33
2017-10-03T13:29:47.104Z,6.18
2017-10-03T13:32:15.307Z,6.57
2017-10-03T13:34:42.738Z,5.95
2017-10-03T13:37:10.167Z,5.93
2017-10-03T13:39:37.603Z,5.62
2017-10-03T13:42:05.036Z,4.18
2017-10-03T13:44:32.509Z,4.68
2017-10-03T13:46:59.969Z,4.37
2017-10-03T13:49:27.423Z,7.17
2017-10-03T13:51:54.851Z,7.72
2017-10-03T13:54:22.286Z,6.45
2017-10-03T13:56:49.730Z,5.97
2017-10-03T13:59:17.926Z,6.28
2017-10-03T14:01:45.404Z,5.80
2017-10-03T14:04:12.873Z,6.53
2017-10-03T14:06:40.352Z,7.93
2017-10-03T14:09:07.811Z,6.50
2017-10-03T14:11:35.261Z,4.93
2017-10-03T14:14:02.678Z,5.30
2017-10-03T14:16:30.129Z,5.82
2017-10-03T14:18:57.579Z,4.82
2017-10-03T14:21:25.013Z,6.53
2017-10-03T14:26:31.743Z,5.30
2017-10-03T14:28:59.171Z,4.68
2017-10-03T14:31:26.875Z,4.18
2017-10-03T14:33:54.334Z,3.78
2017-10-03T14:36:21.775Z,4.28
2017-10-03T14:38:49.209Z,3.85
2017-10-03T14:41:16.638Z,6.25
2017-10-03T14:43:44.862Z,4.75
2017-10-03T14:46:12.294Z,4.22
2017-10-03T14:48:39.733Z,4.62
2017-10-03T14:51:07.240Z,6.97
2017-10-03T14:53:34.683Z,3.58
2017-10-03T14:56:02.120Z,4.65
2017-10-03T14:58:29.674Z,7.12
2017-10-03T15:00:57.110Z,5.40
2017-10-03T15:03:25.324Z,4.72
2017-10-03T15:05:52.766Z,4.45
2017-10-03T15:08:20.645Z,6.10
2017-10-03T15:10:48.074Z,6.43
2017-10-03T15:13:15.511Z,5.18
2017-10-03T15:15:43.742Z,5.30
2017-10-03T15:18:11.181Z,5.43
2017-10-03T15:20:38.611Z,7.40
2017-10-03T15:23:06.049Z,3.78
2017-10-03T15:25:33.495Z,7.70
2017-10-03T15:28:00.923Z,4.87
2017-10-03T15:30:29.315Z,5.50
2017-10-03T15:32:56.757Z,4.07
2017-10-03T15:35:24.182Z,6.57
2017-10-03T15:37:51.674Z,5.12
2017-10-03T15:40:19.117Z,4.10
2017-10-03T15:42:46.568Z,6.20
2017-10-03T15:45:13.988Z,7.75
2017-10-03T15:47:42.234Z,7.80
2017-10-03T15:50:09.691Z,5.60
2017-10-03T15:52:37.121Z,6.28
2017-10-03T15:55:04.563Z,5.18
2017-10-03T15:57:32.007Z,5.50
2017-10-03T15:59:59.637Z,4.50
2017-10-03T16:02:27.057Z,6.30
2017-10-03T16:04:54.487Z,5.20
2017-10-03T16:07:21.937Z,5.68
2017-10-03T16:09:49.384Z,8.93
2017-10-03T16:12:16.819Z,6.27
2017-10-03T16:14:45.071Z,8.82
2017-10-03T16:17:12.515Z,8.15
2017-10-03T16:19:39.953Z,6.77
2017-10-03T16:22:07.390Z,6.55
2017-10-03T16:24:34.977Z,7.20
2017-10-03T16:27:02.548Z,7.20
2017-10-03T16:29:29.995Z,7.40
2017-10-03T16:31:57.444Z,6.30
2017-10-03T16:34:25.019Z,7.95
2017-10-03T16:36:52.466Z,7.72
2017-10-03T16:39:20.016Z,4.80
2017-10-03T16:41:47.460Z,8.87
2017-10-03T16:44:14.939Z,8.30
2017-10-03T16:46:42.394Z,7.75
2017-10-03T16:49:09.956Z,10.98
2017-10-03T16:51:37.407Z,8.38
2017-10-03T16:54:04.908Z,10.27
2017-10-03T16:56:32.335Z,9.90
2017-10-03T16:58:59.844Z,8.00
2017-10-03T17:01:27.313Z,10.45
2017-10-03T17:03:55.497Z,6.70
2017-10-03T17:06:22.947Z,10.70
2017-10-03T17:08:50.390Z,12.27
2017-10-03T17:11:17.842Z,9.95
2017-10-03T17:13:45.344Z,11.80
2017-10-03T17:16:12.772Z,8.90
2017-10-03T17:18:40.215Z,9.60
2017-10-03T17:21:07.706Z,10.45
2017-10-03T17:23:35.154Z,9.47
2017-10-03T17:26:02.701Z,9.43
2017-10-03T17:28:30.194Z,7.05
2017-10-03T17:30:57.660Z,9.65
2017-10-03T17:33:25.103Z,9.88
2017-10-03T17:35:52.538Z,7.10
2017-10-03T17:38:19.994Z,7.20
2017-10-03T17:40:47.562Z,9.95
2017-10-03T17:43:15.073Z,7.50
2017-10-03T17:45:42.515Z,9.50
2017-10-03T17:48:10.759Z,13.10
2017-10-03T17:50:38.175Z,13.20
2017-10-03T17:53:05.620Z,13.30
2017-10-03T17:55:33.063Z,13.97
2017-10-03T17:58:01.290Z,14.95
2017-10-03T18:00:28.738Z,12.68
2017-10-03T18:02:56.178Z,12.20
2017-10-03T18:05:23.619Z,11.15
2017-10-03T18:07:51.050Z,10.98
2017-10-03T18:10:19.331Z,12.18
2017-10-03T18:12:46.787Z,11.75
2017-10-03T18:15:14.987Z,13.38
2017-10-03T18:17:42.487Z,10.32
2017-10-03T18:20:09.940Z,10.63
2017-10-03T18:22:37.392Z,10.00
2017-10-03T18:25:04.923Z,12.37
2017-10-03T18:27:32.394Z,12.25
2017-10-03T18:30:00.691Z,8.30
2017-10-03T18:32:28.139Z,9.30
2017-10-03T18:34:55.576Z,11.60
2017-10-03T18:37:23.026Z,9.32
2017-10-03T18:39:50.471Z,8.80
2017-10-03T18:42:17.919Z,10.93
2017-10-03T18:44:45.419Z,9.48
2017-10-03T18:47:12.849Z,8.57
2017-10-03T18:49:40.307Z,10.82
2017-10-03T18:52:07.763Z,8.88
2017-10-03T18:54:35.233Z,12.77
2017-10-03T18:57:02.666Z,9.68
2017-10-03T18:59:30.107Z,8.88
2017-10-03T19:01:57.606Z,8.55
2017-10-03T19:04:25.058Z,12.40
2017-10-03T19:06:52.503Z,8.30
2017-10-03T19:09:19.970Z,10.50
2017-10-03T19:11:47.426Z,8.40
2017-10-03T19:14:14.991Z,10.05
2017-10-03T19:16:42.442Z,9.50
2017-10-03T19:19:09.983Z,8.90
2017-10-03T19:21:37.426Z,8.88
2017-10-03T19:24:05.281Z,8.93
2017-10-03T19:26:33.615Z,10.17
2017-10-03T19:29:01.058Z,10.30
2017-10-03T19:31:28.598Z,11.32
2017-10-03T19:33:56.058Z,7.62
2017-10-03T19:36:23.551Z,9.02
2017-10-03T19:38:51.011Z,6.35
2017-10-03T19:41:19.288Z,7.50
2017-10-03T19:43:46.740Z,8.90
2017-10-03T19:46:14.205Z,13.13
2017-10-03T19:48:41.789Z,9.70
2017-10-03T19:51:09.986Z,6.30
2017-10-03T19:53:37.451Z,5.93
2017-10-03T19:56:04.878Z,6.25
2017-10-03T19:58:32.420Z,7.32
2017-10-03T20:01:00.619Z,8.63
2017-10-03T20:03:28.126Z,11.35
2017-10-03T20:05:55.593Z,7.80
2017-10-03T20:08:23.038Z,9.35
2017-10-03T20:10:51.291Z,11.87
2017-10-03T20:13:18.856Z,10.48
2017-10-03T20:15:46.294Z,9.00
2017-10-03T20:18:13.757Z,9.18
2017-10-03T20:20:41.199Z,9.50
2017-10-03T20:23:08.640Z,13.70
2017-10-03T20:25:36.077Z,9.48
2017-10-03T20:28:04.298Z,10.32
2017-10-03T20:30:31.725Z,7.60
2017-10-03T20:32:59.186Z,7.95
2017-10-03T20:35:26.625Z,7.43
2017-10-03T20:37:54.836Z,8.32
2017-10-03T20:40:22.286Z,10.47
2017-10-03T20:42:49.723Z,8.23
2017-10-03T20:45:17.173Z,9.00
2017-10-03T20:47:45.379Z,11.18
2017-10-03T20:50:12.825Z,6.75
2017-10-03T20:52:40.246Z,13.25
2017-10-03T20:55:08.474Z,11.27
2017-10-03T20:57:36.050Z,12.67
2017-10-03T21:00:03.579Z,8.70
2017-10-03T21:02:31.057Z,7.60
2017-10-03T21:04:58.527Z,10.60
2017-10-03T21:07:25.959Z,9.70
2017-10-03T21:09:53.432Z,8.68
2017-10-03T21:12:20.858Z,10.05
2017-10-03T21:14:48.291Z,9.47
2017-10-03T21:17:15.778Z,8.25
2017-10-03T21:19:43.210Z,11.15
2017-10-03T21:22:10.703Z,9.93
2017-10-03T21:24:38.159Z,10.38
2017-10-03T21:27:05.624Z,12.45
2017-10-03T21:29:33.137Z,10.50
2017-10-03T21:32:00.582Z,9.52
2017-10-03T21:34:28.794Z,11.27
2017-10-03T21:36:56.238Z,10.10
2017-10-03T21:39:23.677Z,13.53
2017-10-03T21:42:03.150Z,12.52
2017-10-03T21:44:30.597Z,10.90
2017-10-03T21:46:58.040Z,8.43
2017-10-03T21:49:25.526Z,10.18
2017-10-03T21:51:53.063Z,11.67
2017-10-03T21:54:20.486Z,9.32
2017-10-03T21:56:47.990Z,7.72
2017-10-03T21:59:15.438Z,9.05
2017-10-03T22:01:42.927Z,10.45
2017-10-03T22:04:10.369Z,9.45
2017-10-03T22:06:37.807Z,10.63
2017-10-03T22:09:05.246Z,8.90
2017-10-03T22:11:32.728Z,8.30
2017-10-03T22:14:00.174Z,10.90
2017-10-03T22:16:27.619Z,10.32
2017-10-03T22:18:55.135Z,9.90
2017-10-03T22:21:22.666Z,11.52
2017-10-03T22:23:50.099Z,14.20
2017-10-03T22:26:17.532Z,10.95
2017-10-03T22:28:45.131Z,8.13
2017-10-03T22:31:12.575Z,9.00
2017-10-03T22:33:40.023Z,6.90
2017-10-03T22:36:07.498Z,9.60
2017-10-03T22:38:34.948Z,11.77
2017-10-03T22:41:02.377Z,9.27
2017-10-03T22:43:29.846Z,11.32
2017-10-03T22:45:57.282Z,6.70
2017-10-03T22:48:24.719Z,9.88
2017-10-03T22:50:52.918Z,8.40
2017-10-03T22:53:20.374Z,9.18
2017-10-03T22:55:47.862Z,7.82
2017-10-03T22:58:15.300Z,9.60
2017-10-03T23:00:42.755Z,9.63
2017-10-03T23:03:10.187Z,9.32
2017-10-03T23:05:38.398Z,10.95
2017-10-03T23:08:05.830Z,7.25
2017-10-03T23:10:33.271Z,11.70
2017-10-03T23:13:00.709Z,9.00
2017-10-03T23:15:28.152Z,9.75
2017-10-03T23:17:55.590Z,9.45
2017-10-03T23:20:23.053Z,10.68
2017-10-03T23:22:50.508Z,9.75
2017-10-03T23:25:17.957Z,11.30
2017-10-03T23:27:45.518Z,9.90
2017-10-03T23:30:12.974Z,10.60
2017-10-03T23:32:40.412Z,7.73
2017-10-03T23:35:07.854Z,9.50
2017-10-03T23:37:35.298Z,8.88
2017-10-03T23:40:02.735Z,7.70
2017-10-03T23:42:30.934Z,5.95
2017-10-03T23:44:58.384Z,10.15
2017-10-03T23:47:25.815Z,9.93
2017-10-03T23:49:54.035Z,8.23
2017-10-03T23:52:21.475Z,9.63
2017-10-03T23:54:48.971Z,7.65
2017-10-03T23:57:16.423Z,6.80
2017-10-03T23:59:43.860Z,6.62
